KPBF

Pine Bluff Regional Grider Field Airport

Pine Bluff, Arkansas, USA
KPBF 151145Z 1512/1612 21006KT P6SM BKN250 FM151600 20009KT P6SM SCT040 BKN250 FM160000 19006KT P6SM SCT100 BKN250 FM160600 20006KT P6SM VCTS SCT030CB BKN100
Issued Valid From Valid To
Aug-15 @ 11:45 UTC
(55 minutes ago)
Aug-15 @ 12:00 UTC
(40 minutes ago)
Aug-16 @ 12:00 UTC
(in 23 hours)
Aug-15 @ 12:00 to Aug-15 @ 16:00
KPBF 151145Z 1512/1612 21006KT P6SM BKN250
Wind Visibility Clouds
210° at 6 knots Greater than 6 miles
  • Broken at 25,000' AGL
From Aug-15 @ 16:00 to Aug-16 @ 00:00
FM151600 20009KT P6SM SCT040 BKN250
Wind Visibility Clouds
200° at 9 knots Greater than 6 miles
  • Scattered at 4,000' AGL
  • Broken at 25,000' AGL
From Aug-16 @ 00:00 to Aug-16 @ 06:00
FM160000 19006KT P6SM SCT100 BKN250
Wind Visibility Clouds
190° at 6 knots Greater than 6 miles
  • Scattered at 10,000' AGL
  • Broken at 25,000' AGL
From Aug-16 @ 06:00 to Aug-16 @ 12:00
FM160600 20006KT P6SM VCTS SCT030CB BKN100
Wind Visibility Clouds Conditions
200° at 6 knots Greater than 6 miles
  • Scattered at 3,000' AGL
  • Broken at 10,000' AGL
  • Area Thunderstorm
KPBF 151145Z 1512/1612 21006KT P6SM BKN250 FM151600 20009KT P6SM SCT040 BKN250 FM160000 19006KT P6SM SCT100 BKN250 FM160600 20006KT P6SM VCTS SCT030CB BKN100
Issued Aug-15 @ 11:45 UTC
(55 minutes ago)
Valid From Aug-15 @ 12:00 UTC
(40 minutes ago)
Valid To Aug-16 @ 12:00 UTC
(in 23 hours)
Aug-15 @ 12:00 - Aug-15 @ 16:00
Wind Visibility
210° at 6 knots Greater than 6 miles
Clouds
  • Broken at 25,000' AGL
From Aug-15 @ 16:00 - Aug-16 @ 00:00
Wind Visibility
200° at 9 knots Greater than 6 miles
Clouds
  • Scattered at 4,000' AGL
  • Broken at 25,000' AGL
From Aug-16 @ 00:00 - Aug-16 @ 06:00
Wind Visibility
190° at 6 knots Greater than 6 miles
Clouds
  • Scattered at 10,000' AGL
  • Broken at 25,000' AGL
From Aug-16 @ 06:00 - Aug-16 @ 12:00
Wind Visibility
200° at 6 knots Greater than 6 miles
Clouds
  • Scattered at 3,000' AGL
  • Broken at 10,000' AGL
Conditions
  • Area Thunderstorm